Time;durP1;ratioP1;P1;durP2;ratioP2;P2;SDS_P1;SDS_P2;PMS_P1;PMS_P2;Temp;Humidity;BMP_temperature;BMP_pressure;BME280_temperature;BME280_humidity;BME280_pressure;Samples;Min_cycle;Max_cycle;Signal;HPM_P1;HPM_P2
2021/08/10 00:02:13;;;;;;;2.73;2.53;;;;;;;19.30;70.93;96597.88;4994921;28;20491;-65
2021/08/10 00:04:39;;;;;;;2.30;2.10;;;;;;;19.26;71.26;96602.16;4993891;28;20197;-66
2021/08/10 00:07:04;;;;;;;2.40;2.20;;;;;;;19.14;72.04;96595.56;4994436;28;20248;-65
2021/08/10 00:09:29;;;;;;;2.80;2.60;;;;;;;19.17;71.67;96595.00;4994717;28;20256;-66
2021/08/10 00:11:56;;;;;;;2.70;2.33;;;;;;;19.04;72.82;96600.94;4994192;28;20227;-64
2021/08/10 00:14:22;;;;;;;2.90;2.53;;;;;;;19.08;72.54;96596.66;4993246;28;20244;-64
2021/08/10 00:16:47;;;;;;;4.10;3.10;;;;;;;18.90;73.78;96595.38;4994695;28;20416;-66
2021/08/10 00:19:12;;;;;;;2.90;2.13;;;;;;;18.96;73.08;96590.84;4994041;28;20169;-65
2021/08/10 00:21:38;;;;;;;2.80;2.43;;;;;;;18.83;74.07;96588.75;4994382;28;20178;-66
2021/08/10 00:24:04;;;;;;;3.87;2.90;;;;;;;18.88;73.53;96586.09;4994359;28;20591;-66
2021/08/10 00:26:30;;;;;;;3.60;3.30;;;;;;;18.79;74.23;96583.19;4994214;28;20651;-66
2021/08/10 00:28:55;;;;;;;3.10;2.40;;;;;;;18.93;74.16;96588.75;4984203;28;20461;-65
2021/08/10 00:31:21;;;;;;;4.40;2.73;;;;;;;18.98;73.91;96588.72;4990349;28;20264;-66
2021/08/10 00:33:46;;;;;;;2.60;2.40;;;;;;;18.90;73.85;96582.06;4993854;28;20200;-66
2021/08/10 00:36:12;;;;;;;3.40;2.57;;;;;;;18.90;73.91;96582.06;4994239;28;20174;-65
2021/08/10 00:38:38;;;;;;;2.70;2.50;;;;;;;18.88;74.12;96584.22;4994166;28;20182;-65
2021/08/10 00:41:04;;;;;;;4.07;2.97;;;;;;;18.82;74.38;96581.84;4993733;28;20977;-66
2021/08/10 00:43:32;;;;;;;2.90;2.70;;;;;;;18.72;74.39;96584.53;4990908;28;20197;-66
2021/08/10 00:45:58;;;;;;;3.00;2.80;;;;;;;18.69;74.73;96587.75;4993685;28;20287;-66
2021/08/10 00:48:23;;;;;;;5.23;3.73;;;;;;;18.67;74.62;96590.69;4994297;28;20877;-66
2021/08/10 00:50:48;;;;;;;5.80;4.17;;;;;;;18.73;75.11;96578.16;4993791;28;20405;-65
2021/08/10 00:53:14;;;;;;;6.43;3.10;;;;;;;18.57;75.14;96579.28;4993471;28;20181;-65
2021/08/10 00:55:40;;;;;;;3.03;2.70;;;;;;;18.53;75.72;96578.22;4994114;28;20189;-64
2021/08/10 00:58:07;;;;;;;3.57;3.10;;;;;;;18.49;75.77;96577.94;4994341;28;20177;-66
2021/08/10 01:00:33;;;;;;;3.77;3.30;;;;;;;18.27;76.81;96577.44;4993171;28;20224;-64
2021/08/10 01:02:58;;;;;;;7.93;3.30;;;;;;;18.35;76.87;96577.66;4993247;28;20433;-64
2021/08/10 01:05:28;;;;;;;3.50;3.13;;;;;;;18.46;76.40;96575.84;4993992;28;20428;-66
2021/08/10 01:08:00;;;;;;;7.10;3.27;;;;;;;18.31;76.95;96575.84;4994100;28;20201;-64
2021/08/10 01:10:43;;;;;;;4.60;3.20;;;;;;;18.44;76.84;96575.31;4993985;28;20427;-65
2021/08/10 01:13:23;;;;;;;3.60;3.30;;;;;;;18.44;76.72;96577.97;4993546;28;20413;-65
2021/08/10 01:16:17;;;;;;;3.13;2.90;;;;;;;18.38;77.00;96571.84;4993600;28;20504;-65
2021/08/10 01:19:10;;;;;;;3.47;3.17;;;;;;;18.32;77.35;96564.91;4993145;28;20408;-66
2021/08/10 01:21:39;;;;;;;3.03;2.70;;;;;;;18.51;76.94;96569.69;4965704;28;20456;-64
2021/08/10 01:24:57;;;;;;;3.90;2.83;;;;;;;18.71;75.69;96565.13;4995117;28;20448;-66
2021/08/10 01:28:01;;;;;;;3.30;3.00;;;;;;;18.76;75.86;96561.63;4973569;28;20915;-66
2021/08/10 01:30:38;;;;;;;3.30;3.00;;;;;;;18.87;75.84;96563.19;4972733;28;20478;-66
2021/08/10 01:33:04;;;;;;;3.00;2.73;;;;;;;18.93;75.72;96565.53;4984951;28;20420;-66
2021/08/10 01:35:32;;;;;;;3.00;2.50;;;;;;;18.99;75.94;96561.78;4997575;28;20441;-64
2021/08/10 01:38:01;;;;;;;3.30;2.97;;;;;;;19.01;75.88;96566.84;4997880;28;20396;-64
2021/08/10 01:40:29;;;;;;;3.30;3.00;;;;;;;19.07;74.55;96568.44;4995320;28;20515;-65
2021/08/10 01:42:56;;;;;;;4.83;3.43;;;;;;;18.93;74.57;96562.09;4996895;28;21205;-66
2021/08/10 01:45:22;;;;;;;4.17;2.80;;;;;;;18.94;75.08;96564.50;4997352;28;20428;-66
2021/08/10 01:47:48;;;;;;;3.17;2.90;;;;;;;18.97;75.04;96552.50;4997533;28;20955;-65
2021/08/10 01:50:15;;;;;;;5.23;2.80;;;;;;;18.96;74.82;96550.91;4996904;28;20516;-66
2021/08/10 01:52:42;;;;;;;2.90;2.70;;;;;;;18.96;74.84;96550.91;4996470;28;20635;-66
2021/08/10 01:55:09;;;;;;;3.17;2.87;;;;;;;19.00;74.84;96551.94;4997307;28;20447;-66
2021/08/10 01:57:36;;;;;;;3.20;2.63;;;;;;;19.02;74.46;96547.16;4996206;28;20427;-65
2021/08/10 02:00:04;;;;;;;3.00;2.70;;;;;;;18.98;74.89;96556.75;4997128;28;20428;-65
2021/08/10 02:02:30;;;;;;;5.03;2.70;;;;;;;19.01;74.84;96545.53;4997164;28;20438;-66
2021/08/10 02:04:57;;;;;;;2.80;2.60;;;;;;;18.97;75.01;96552.50;4996291;28;20503;-65
2021/08/10 02:07:22;;;;;;;4.03;3.63;;;;;;;18.92;74.76;96544.50;4996416;28;20930;-66
2021/08/10 02:09:49;;;;;;;7.43;3.07;;;;;;;18.91;74.67;96549.06;4996752;28;20428;-65
2021/08/10 02:12:15;;;;;;;3.13;2.83;;;;;;;18.92;74.97;96545.31;4997356;28;20170;-64
2021/08/10 02:14:42;;;;;;;2.87;2.67;;;;;;;18.87;75.29;96536.56;4996765;28;20974;-65
2021/08/10 02:17:08;;;;;;;4.77;2.90;;;;;;;18.82;75.05;96542.72;4996819;28;20510;-66
2021/08/10 02:19:34;;;;;;;3.70;2.40;;;;;;;18.79;74.74;96542.47;4996333;28;20838;-65
2021/08/10 02:22:09;;;;;;;2.97;2.77;;;;;;;18.71;75.34;96540.34;4995950;28;20173;-66
2021/08/10 02:24:38;;;;;;;3.67;2.80;;;;;;;18.70;75.82;96536.09;4977021;28;20515;-65
2021/08/10 02:27:08;;;;;;;4.13;2.90;;;;;;;18.60;76.08;96538.78;4977861;28;20476;-65
2021/08/10 02:29:40;;;;;;;3.10;2.80;;;;;;;18.56;75.96;96537.72;4996361;28;20495;-66
2021/08/10 02:32:08;;;;;;;3.13;2.37;;;;;;;18.53;76.16;96530.31;4997161;28;20404;-65
2021/08/10 02:34:35;;;;;;;5.23;3.07;;;;;;;18.52;75.83;96536.69;4995396;28;20444;-65
2021/08/10 02:37:01;;;;;;;4.07;2.67;;;;;;;18.44;75.98;96538.06;4993099;28;20445;-65
2021/08/10 02:39:28;;;;;;;3.10;2.83;;;;;;;18.33;76.32;96541.78;4979640;28;20749;-64
2021/08/10 02:41:55;;;;;;;3.77;2.93;;;;;;;18.35;76.58;96543.06;4996685;28;20409;-66
2021/08/10 02:44:23;;;;;;;3.03;2.37;;;;;;;18.21;77.25;96538.59;4995848;28;20455;-64
2021/08/10 02:46:49;;;;;;;2.80;2.60;;;;;;;18.06;77.93;96541.28;4996381;28;20930;-65
2021/08/10 02:49:14;;;;;;;3.70;2.73;;;;;;;18.17;77.64;96540.97;4996330;28;20448;-66
2021/08/10 02:51:40;;;;;;;3.57;3.27;;;;;;;18.20;77.91;96543.13;4994036;28;20212;-65
2021/08/10 02:54:05;;;;;;;3.13;2.83;;;;;;;18.23;77.05;96547.91;4995767;28;20268;-64
2021/08/10 02:56:41;;;;;;;3.13;2.73;;;;;;;18.13;77.85;96542.63;4995557;28;20169;-66
2021/08/10 02:59:16;;;;;;;2.77;2.57;;;;;;;18.18;77.99;96541.78;4995588;28;20632;-64
2021/08/10 03:01:48;;;;;;;5.70;2.70;;;;;;;18.27;77.37;96548.16;4995831;28;20996;-66
2021/08/10 03:04:14;;;;;;;4.77;2.67;;;;;;;18.25;77.22;96545.78;4995670;28;20475;-66
2021/08/10 03:06:40;;;;;;;3.00;2.80;;;;;;;18.20;77.63;96540.47;4995268;28;20420;-66
2021/08/10 03:09:06;;;;;;;3.03;2.73;;;;;;;18.18;77.63;96550.56;4995766;28;20458;-66
2021/08/10 03:11:39;;;;;;;4.80;3.27;;;;;;;17.97;78.20;96545.56;4990554;28;20433;-65
2021/08/10 03:14:08;;;;;;;3.07;2.70;;;;;;;18.05;78.36;96545.81;4994049;28;21013;-65
2021/08/10 03:16:34;;;;;;;3.60;3.00;;;;;;;18.04;77.92;96543.41;4995553;28;20425;-65
2021/08/10 03:19:04;;;;;;;3.50;2.87;;;;;;;18.02;78.22;96540.22;4995694;28;20488;-66
2021/08/10 03:21:30;;;;;;;2.97;2.77;;;;;;;18.00;78.67;96540.50;4991238;28;20181;-65
2021/08/10 03:23:57;;;;;;;4.97;2.90;;;;;;;18.13;78.08;96536.50;4995369;28;20416;-66
2021/08/10 03:26:25;;;;;;;4.03;3.63;;;;;;;18.12;78.15;96538.34;4989602;28;20421;-64
2021/08/10 03:28:52;;;;;;;4.13;3.10;;;;;;;18.16;78.16;96544.72;4993552;28;20448;-64
2021/08/10 03:31:19;;;;;;;2.77;2.53;;;;;;;18.17;77.68;96534.88;4995296;28;20428;-65
2021/08/10 03:33:45;;;;;;;4.80;2.90;;;;;;;18.09;77.38;96546.06;4994733;28;20919;-65
2021/08/10 03:36:11;;;;;;;3.77;2.70;;;;;;;18.14;76.94;96543.38;4995547;28;20437;-66
2021/08/10 03:38:37;;;;;;;2.93;2.73;;;;;;;17.87;78.14;96546.34;4994784;28;20695;-66
2021/08/10 03:41:05;;;;;;;4.93;3.40;;;;;;;17.97;77.80;96535.69;4994884;28;20417;-64
2021/08/10 03:43:32;;;;;;;3.70;3.00;;;;;;;17.87;78.27;96550.84;4978437;28;20182;-66
2021/08/10 03:45:58;;;;;;;4.27;2.90;;;;;;;17.81;78.38;96541.31;4984701;28;20440;-65
2021/08/10 03:48:24;;;;;;;4.10;2.40;;;;;;;17.85;78.24;96550.31;4995218;28;20798;-66
2021/08/10 03:50:52;;;;;;;2.53;2.33;;;;;;;17.83;78.30;96539.16;4992878;28;20550;-64
2021/08/10 03:53:21;;;;;;;3.60;2.77;;;;;;;17.87;78.11;96540.22;4984152;28;20173;-66
2021/08/10 03:55:49;;;;;;;3.40;2.60;;;;;;;17.91;77.68;96533.31;4993900;28;20432;-66
2021/08/10 03:58:16;;;;;;;2.97;2.77;;;;;;;17.86;77.99;96541.31;4987708;28;20485;-66
2021/08/10 04:00:42;;;;;;;3.37;2.37;;;;;;;17.87;77.95;96537.56;4994868;28;20420;-66
2021/08/10 04:03:10;;;;;;;4.33;2.70;;;;;;;17.69;78.67;96535.44;4994871;28;20832;-66
2021/08/10 04:05:43;;;;;;;2.90;2.70;;;;;;;17.76;78.51;96543.94;4994496;28;20483;-66
2021/08/10 04:08:10;;;;;;;2.60;2.40;;;;;;;17.76;78.59;96539.44;4993314;28;20456;-64
2021/08/10 04:10:39;;;;;;;4.10;2.97;;;;;;;17.72;79.19;96532.28;4994502;28;20911;-66
2021/08/10 04:13:07;;;;;;;5.57;3.57;;;;;;;17.59;79.41;96546.88;4993257;28;20413;-65
2021/08/10 04:15:33;;;;;;;5.10;3.17;;;;;;;17.73;79.53;96544.50;4994138;28;20441;-66
2021/08/10 04:18:00;;;;;;;2.70;2.50;;;;;;;17.68;79.43;96547.97;4994534;28;20930;-66
2021/08/10 04:20:25;;;;;;;3.47;3.17;;;;;;;17.46;80.61;96540.19;4994853;28;20196;-65
2021/08/10 04:22:50;;;;;;;4.67;3.20;;;;;;;17.28;81.46;96545.22;4994101;28;20892;-66
2021/08/10 04:25:16;;;;;;;3.20;2.87;;;;;;;17.35;81.67;96540.44;4994590;28;20194;-65
2021/08/10 04:27:41;;;;;;;3.43;3.10;;;;;;;17.36;81.63;96542.03;4992990;28;20231;-65
2021/08/10 04:30:07;;;;;;;3.10;2.90;;;;;;;17.58;81.28;96550.59;4994505;28;20205;-66
2021/08/10 04:32:32;;;;;;;4.67;2.53;;;;;;;17.76;80.81;96555.38;4979758;28;20205;-66
2021/08/10 04:34:58;;;;;;;4.47;2.90;;;;;;;17.74;81.44;96568.13;4974610;28;20541;-64
2021/08/10 04:37:23;;;;;;;3.70;2.77;;;;;;;17.84;80.64;96559.38;4987731;28;20536;-66
2021/08/10 04:39:49;;;;;;;3.77;2.87;;;;;;;17.92;80.68;96556.16;4994487;28;20523;-66
2021/08/10 04:42:14;;;;;;;2.90;2.70;;;;;;;17.91;81.31;96565.22;4994275;28;20260;-64
2021/08/10 04:44:40;;;;;;;4.10;3.07;;;;;;;17.95;81.79;96568.94;4975244;28;20201;-65
2021/08/10 04:47:05;;;;;;;3.10;2.80;;;;;;;17.98;82.15;96574.53;4974958;28;20174;-65
2021/08/10 04:49:31;;;;;;;6.50;2.90;;;;;;;18.01;81.67;96574.00;4974974;28;20268;-65
2021/08/10 04:51:56;;;;;;;4.07;3.13;;;;;;;18.16;80.92;96576.66;4986279;28;20205;-66
2021/08/10 04:54:21;;;;;;;3.83;3.20;;;;;;;18.08;81.14;96574.50;4993489;28;20200;-66
2021/08/10 04:56:47;;;;;;;2.77;2.60;;;;;;;18.21;80.41;96566.00;4994319;28;20523;-66
2021/08/10 04:59:12;;;;;;;3.43;3.13;;;;;;;18.24;80.68;96570.75;4993952;28;20201;-66
2021/08/10 05:01:39;;;;;;;3.27;2.97;;;;;;;18.31;80.69;96559.88;4994021;28;20182;-66
2021/08/10 05:04:05;;;;;;;4.57;2.93;;;;;;;18.41;80.59;96563.31;4983699;28;20245;-66
2021/08/10 05:06:30;;;;;;;3.10;2.70;;;;;;;18.29;80.03;96562.00;4987999;28;20951;-66
2021/08/10 05:08:55;;;;;;;3.23;2.93;;;;;;;18.30;79.37;96561.72;4993675;28;20378;-64
2021/08/10 05:11:21;;;;;;;4.83;3.03;;;;;;;18.33;79.49;96576.38;4994170;28;20188;-66
2021/08/10 05:13:46;;;;;;;3.20;2.90;;;;;;;18.20;79.05;96571.59;4993638;28;20169;-66
2021/08/10 05:16:11;;;;;;;3.80;2.93;;;;;;;17.98;79.23;96568.41;4994082;28;20676;-66
2021/08/10 05:18:37;;;;;;;4.23;2.90;;;;;;;17.95;79.81;96569.75;4994107;28;20537;-66
2021/08/10 05:21:02;;;;;;;4.60;2.90;;;;;;;17.97;79.80;96569.47;4993254;28;20209;-64
2021/08/10 05:23:31;;;;;;;3.23;2.90;;;;;;;18.18;79.03;96573.72;4993455;28;20184;-64
2021/08/10 05:25:57;;;;;;;3.57;2.93;;;;;;;18.15;78.73;96576.91;4994005;28;20205;-65
2021/08/10 05:28:22;;;;;;;3.43;2.70;;;;;;;18.27;78.39;96585.41;4993815;28;20973;-66
2021/08/10 05:30:47;;;;;;;4.23;2.53;;;;;;;18.32;78.01;96591.53;4994426;28;20589;-64
2021/08/10 05:33:13;;;;;;;5.53;3.60;;;;;;;17.92;78.91;96594.19;4993583;28;20173;-64
2021/08/10 05:35:38;;;;;;;3.50;2.80;;;;;;;17.90;79.17;96600.88;4992895;28;20236;-66
2021/08/10 05:38:04;;;;;;;2.90;2.70;;;;;;;18.13;78.39;96590.50;4993735;28;20249;-64
2021/08/10 05:40:29;;;;;;;3.20;2.87;;;;;;;18.21;77.61;96592.59;4993980;28;20252;-66
2021/08/10 05:42:54;;;;;;;2.93;2.53;;;;;;;18.30;77.25;96591.00;4993876;28;20177;-65
2021/08/10 05:45:20;;;;;;;4.83;2.80;;;;;;;18.53;76.62;96594.19;4993761;28;20648;-64
2021/08/10 05:47:45;;;;;;;3.10;2.80;;;;;;;18.45;76.87;96596.31;4993557;28;20256;-66
2021/08/10 05:50:10;;;;;;;7.90;2.90;;;;;;;18.35;76.62;96593.63;4993002;28;20186;-66
2021/08/10 05:52:36;;;;;;;3.30;3.00;;;;;;;18.30;76.65;96593.66;4993390;28;20185;-66
2021/08/10 05:55:01;;;;;;;3.67;2.80;;;;;;;18.06;77.30;96587.28;4993670;28;20787;-65
2021/08/10 05:57:27;;;;;;;3.80;3.13;;;;;;;18.18;77.02;96592.34;4993692;28;20193;-65
2021/08/10 05:59:52;;;;;;;2.70;2.50;;;;;;;18.18;77.25;96598.47;4993736;28;20180;-64
2021/08/10 06:02:18;;;;;;;3.70;3.20;;;;;;;18.15;77.36;96592.88;4993882;28;20263;-64
2021/08/10 06:04:43;;;;;;;4.20;3.27;;;;;;;18.16;77.67;96595.25;4992481;28;20209;-64
2021/08/10 06:07:08;;;;;;;3.10;2.87;;;;;;;18.14;77.84;96589.41;4993771;28;20511;-64
2021/08/10 06:09:34;;;;;;;4.13;3.50;;;;;;;18.25;77.52;96598.19;4994535;28;20292;-65
2021/08/10 06:11:59;;;;;;;3.77;2.77;;;;;;;18.17;78.02;96593.41;4997167;28;20181;-66
2021/08/10 06:14:25;;;;;;;2.80;2.60;;;;;;;18.47;77.08;96593.38;4996848;28;20200;-64
2021/08/10 06:16:51;;;;;;;3.90;2.73;;;;;;;18.42;77.15;96590.75;4997178;28;20252;-64
2021/08/10 06:19:17;;;;;;;2.87;2.67;;;;;;;18.59;76.42;96582.47;4996217;28;20664;-64
2021/08/10 06:21:42;;;;;;;5.33;2.97;;;;;;;18.85;75.94;96579.44;4997272;28;20428;-65
2021/08/10 06:24:08;;;;;;;3.50;2.87;;;;;;;18.72;76.11;96590.66;4996561;28;20197;-66
2021/08/10 06:26:33;;;;;;;4.60;3.10;;;;;;;18.76;75.57;96588.25;4997183;28;20651;-64
2021/08/10 06:28:58;;;;;;;5.10;2.60;;;;;;;18.82;75.48;96587.19;4996950;28;20664;-64
2021/08/10 06:31:24;;;;;;;2.57;2.37;;;;;;;18.99;77.85;96591.09;4996965;28;20193;-66
2021/08/10 06:33:49;;;;;;;3.00;2.70;;;;;;;19.14;78.17;96582.25;4995270;28;20663;-65
2021/08/10 06:36:15;;;;;;;2.73;2.47;;;;;;;19.23;78.37;96593.91;4995195;28;20180;-65
2021/08/10 06:38:40;;;;;;;4.10;3.00;;;;;;;19.44;77.66;96585.56;4977688;28;20229;-65
2021/08/10 06:41:05;;;;;;;3.97;3.00;;;;;;;19.59;77.39;96587.34;4977468;28;20173;-64
2021/08/10 06:43:31;;;;;;;3.87;2.70;;;;;;;19.79;77.00;96587.22;4976863;28;20622;-64
2021/08/10 06:45:57;;;;;;;3.77;3.47;;;;;;;19.92;76.66;96583.91;4991300;28;20213;-66
2021/08/10 06:48:22;;;;;;;6.17;4.00;;;;;;;19.89;75.97;96573.00;4996304;28;20240;-65
2021/08/10 06:50:47;;;;;;;5.37;4.00;;;;;;;19.94;75.19;96583.63;4996655;28;20265;-66
2021/08/10 06:53:14;;;;;;;3.17;2.53;;;;;;;19.89;75.38;96578.34;4978973;28;20185;-64
2021/08/10 06:55:40;;;;;;;3.50;2.97;;;;;;;20.00;75.38;96582.53;4976912;28;20603;-62
2021/08/10 06:58:05;;;;;;;3.47;3.17;;;;;;;20.16;74.95;96576.78;4979620;28;20452;-66
2021/08/10 07:00:30;;;;;;;6.67;2.83;;;;;;;20.17;74.12;96578.41;4996218;28;20624;-57
2021/08/10 07:02:56;;;;;;;4.30;3.00;;;;;;;20.06;73.41;96579.53;4996237;28;20572;-60
2021/08/10 07:05:21;;;;;;;3.30;3.00;;;;;;;20.35;73.24;96574.22;4996139;28;20197;-60
2021/08/10 07:07:47;;;;;;;2.47;2.30;;;;;;;20.42;72.12;96580.00;4979899;28;20251;-61
2021/08/10 07:10:12;;;;;;;3.13;2.20;;;;;;;20.29;72.33;96575.38;4976724;28;20178;-66
2021/08/10 07:12:38;;;;;;;2.90;2.63;;;;;;;20.43;72.05;96573.63;4977811;28;20644;-61
2021/08/10 07:15:04;;;;;;;3.10;2.50;;;;;;;20.48;72.63;96574.38;4976814;28;20202;-62
2021/08/10 07:17:29;;;;;;;2.60;2.40;;;;;;;20.51;72.94;96574.88;4975450;28;20224;-67
2021/08/10 07:19:55;;;;;;;2.80;2.23;;;;;;;20.80;73.54;96570.28;4981727;28;20412;-62
2021/08/10 07:22:20;;;;;;;2.50;2.20;;;;;;;21.04;74.50;96571.06;4990129;28;20174;-67
2021/08/10 07:24:45;;;;;;;2.90;2.70;;;;;;;21.18;74.72;96566.59;4995369;28;20229;-62
2021/08/10 07:27:11;;;;;;;4.30;2.37;;;;;;;21.30;73.09;96569.69;4995844;28;20177;-62
2021/08/10 07:29:36;;;;;;;3.17;2.00;;;;;;;21.44;72.87;96568.69;4995778;28;20360;-67
2021/08/10 07:32:02;;;;;;;3.27;2.20;;;;;;;21.07;69.06;96567.84;4995839;28;20176;-68
2021/08/10 07:34:27;;;;;;;2.30;2.10;;;;;;;20.86;70.33;96561.13;4994060;28;20263;-60
2021/08/10 07:36:52;;;;;;;3.73;2.77;;;;;;;20.93;70.52;96565.03;4990780;28;20182;-62
2021/08/10 07:39:18;;;;;;;6.23;2.17;;;;;;;21.04;70.26;96565.72;4976543;28;20586;-68
2021/08/10 07:41:43;;;;;;;2.40;2.10;;;;;;;21.14;69.76;96562.94;4976176;28;20176;-68
2021/08/10 07:44:08;;;;;;;2.77;2.37;;;;;;;21.08;68.62;96559.53;4993768;28;20272;-68
2021/08/10 07:46:34;;;;;;;4.17;2.20;;;;;;;20.96;69.16;96559.09;4994075;28;20553;-59
2021/08/10 07:49:00;;;;;;;3.37;2.03;;;;;;;20.80;68.36;96556.94;4991936;28;20540;-64
2021/08/10 07:51:25;;;;;;;3.50;2.80;;;;;;;20.90;66.66;96554.13;4991000;28;20273;-67
2021/08/10 07:53:51;;;;;;;2.63;2.43;;;;;;;20.75;68.59;96554.28;4991543;28;20208;-68
2021/08/10 07:56:19;;;;;;;2.60;2.30;;;;;;;20.91;68.88;96558.38;4992037;28;20209;-66
2021/08/10 07:58:45;;;;;;;5.17;2.03;;;;;;;21.01;67.47;96552.94;4991787;28;20499;-61
2021/08/10 08:01:10;;;;;;;3.37;2.07;;;;;;;20.86;68.90;96543.22;4991284;28;20177;-62
2021/08/10 08:03:36;;;;;;;4.50;2.10;;;;;;;20.84;68.97;96541.91;4990988;28;20439;-64
2021/08/10 08:06:01;;;;;;;2.90;1.97;;;;;;;21.03;70.34;96535.56;4988321;28;20558;-65
2021/08/10 08:08:29;;;;;;;3.10;2.40;;;;;;;21.32;70.28;96538.88;4991537;28;20205;-63
2021/08/10 08:10:55;;;;;;;3.07;2.00;;;;;;;21.16;68.75;96537.50;4991705;28;20288;-62
2021/08/10 08:13:21;;;;;;;2.77;2.50;;;;;;;21.21;69.49;96542.00;4990498;28;20520;-64
2021/08/10 08:15:47;;;;;;;2.70;1.77;;;;;;;21.33;71.83;96534.34;4990976;28;20232;-58
2021/08/10 08:18:12;;;;;;;2.57;2.40;;;;;;;21.66;72.98;96530.63;4990950;28;20483;-61
2021/08/10 08:20:38;;;;;;;3.43;2.40;;;;;;;21.54;71.48;96529.50;4990667;28;20440;-61
2021/08/10 08:23:04;;;;;;;3.47;2.30;;;;;;;21.60;73.96;96525.63;4990209;28;20951;-62
2021/08/10 08:25:30;;;;;;;2.60;2.13;;;;;;;21.35;72.26;96527.63;4990708;28;20591;-62
2021/08/10 08:27:55;;;;;;;3.10;2.80;;;;;;;21.56;73.00;96530.00;4993967;28;20472;-61
2021/08/10 08:30:21;;;;;;;3.83;2.83;;;;;;;21.42;75.80;96524.56;4994041;28;20185;-58
2021/08/10 08:32:46;;;;;;;2.50;2.30;;;;;;;21.52;74.74;96518.28;4990399;28;20273;-60
2021/08/10 08:35:12;;;;;;;2.53;2.33;;;;;;;21.73;71.57;96524.91;4989450;28;20272;-61
2021/08/10 08:37:37;;;;;;;3.77;2.80;;;;;;;21.54;70.83;96534.84;4979866;28;20235;-60
2021/08/10 08:40:05;;;;;;;4.53;3.00;;;;;;;21.64;71.28;96532.81;4990553;28;20189;-62
2021/08/10 08:42:31;;;;;;;4.10;2.80;;;;;;;21.75;72.95;96530.75;4991052;28;20184;-60
2021/08/10 08:44:56;;;;;;;3.23;2.93;;;;;;;21.96;72.61;96529.38;4990355;28;20445;-57
2021/08/10 08:47:22;;;;;;;2.77;2.57;;;;;;;22.28;71.70;96532.03;4990607;28;20216;-59
2021/08/10 08:49:51;;;;;;;2.60;2.40;;;;;;;21.99;68.70;96532.28;4988874;28;20205;-59
2021/08/10 08:52:18;;;;;;;2.50;2.30;;;;;;;21.93;69.20;96533.44;4990820;28;20838;-61
2021/08/10 08:54:44;;;;;;;3.50;2.70;;;;;;;21.72;69.88;96528.69;4989714;28;20456;-61
2021/08/10 08:57:10;;;;;;;3.03;2.73;;;;;;;21.77;69.46;96534.75;4990789;28;20424;-59
2021/08/10 08:59:39;;;;;;;2.67;2.30;;;;;;;21.77;69.53;96536.63;4990866;28;20174;-59
2021/08/10 09:02:04;;;;;;;2.80;2.47;;;;;;;22.02;67.99;96547.75;4987291;28;20185;-62
2021/08/10 09:04:30;;;;;;;2.63;2.17;;;;;;;21.90;68.20;96543.94;4985879;28;20444;-62
2021/08/10 09:06:55;;;;;;;2.73;2.00;;;;;;;22.18;66.83;96545.59;4990591;28;20247;-61
2021/08/10 09:09:29;;;;;;;3.57;2.60;;;;;;;22.50;68.14;96554.38;4990136;28;20649;-63
2021/08/10 09:12:00;;;;;;;4.67;2.30;;;;;;;22.14;66.84;96558.75;4989722;28;20239;-59
2021/08/10 09:14:42;;;;;;;2.17;1.97;;;;;;;22.18;66.56;96556.28;4989746;28;20436;-59
2021/08/10 09:17:15;;;;;;;3.60;2.17;;;;;;;22.17;67.92;96562.75;4990523;28;20420;-62
2021/08/10 09:19:52;;;;;;;3.30;2.30;;;;;;;22.07;62.08;96552.19;4990458;28;20426;-64
2021/08/10 09:22:23;;;;;;;2.37;1.93;;;;;;;21.75;61.80;96560.19;4990601;28;20452;-63
2021/08/10 09:24:53;;;;;;;3.10;2.27;;;;;;;22.01;61.64;96562.19;4986687;28;20453;-60
2021/08/10 09:27:23;;;;;;;1.77;1.60;;;;;;;22.07;61.21;96560.22;4971097;28;20508;-60
2021/08/10 09:29:49;;;;;;;3.07;2.03;;;;;;;22.39;61.27;96558.31;4971855;28;20464;-63
2021/08/10 09:32:16;;;;;;;2.60;1.90;;;;;;;22.33;59.60;96556.84;4988787;28;20479;-61
2021/08/10 09:34:42;;;;;;;2.70;2.07;;;;;;;22.26;58.82;96561.78;4989309;28;20432;-63
2021/08/10 09:37:17;;;;;;;6.40;1.83;;;;;;;22.47;60.70;96557.66;4982914;28;20531;-58
2021/08/10 09:39:43;;;;;;;1.97;1.57;;;;;;;22.40;58.53;96548.41;4976737;28;20438;-60
2021/08/10 09:42:12;;;;;;;3.53;1.67;;;;;;;22.40;58.19;96559.13;4984506;28;21100;-61
2021/08/10 09:44:58;;;;;;;2.47;1.70;;;;;;;22.39;58.10;96561.00;4996815;28;20201;-62
2021/08/10 09:47:35;;;;;;;2.63;1.70;;;;;;;22.43;58.99;96562.00;4989966;28;20445;-57
2021/08/10 09:50:00;;;;;;;1.80;1.70;;;;;;;22.61;61.11;96555.00;4993701;28;20542;-59
2021/08/10 09:52:28;;;;;;;3.07;2.17;;;;;;;22.35;58.83;96560.03;4994105;28;20491;-58
2021/08/10 09:54:55;;;;;;;2.10;1.90;;;;;;;22.80;59.02;96565.63;4992613;28;20204;-59
2021/08/10 09:57:20;;;;;;;4.80;2.10;;;;;;;22.86;60.32;96567.94;4993426;28;20439;-61
2021/08/10 09:59:46;;;;;;;2.00;1.63;;;;;;;22.77;58.87;96574.28;4994028;28;20496;-58
2021/08/10 10:02:22;;;;;;;4.60;1.70;;;;;;;22.84;57.56;96569.31;4993559;28;20261;-61
2021/08/10 10:04:53;;;;;;;2.80;2.07;;;;;;;22.78;57.36;96573.16;4992680;28;20209;-60
2021/08/10 10:07:19;;;;;;;2.00;1.70;;;;;;;23.06;60.87;96572.88;4993271;28;20779;-60
2021/08/10 10:09:44;;;;;;;2.47;2.27;;;;;;;22.97;58.48;96566.63;4992720;28;20473;-58
2021/08/10 10:12:10;;;;;;;2.43;1.83;;;;;;;22.81;57.88;96567.25;4993783;28;20174;-58
2021/08/10 10:14:38;;;;;;;2.93;2.10;;;;;;;22.90;58.55;96568.13;4992598;28;20868;-58
2021/08/10 10:17:05;;;;;;;4.70;2.50;;;;;;;23.07;58.24;96570.97;4993593;28;20231;-61
2021/08/10 10:19:36;;;;;;;2.70;2.07;;;;;;;23.29;59.60;96560.34;4992455;28;21126;-57
2021/08/10 10:22:13;;;;;;;3.50;2.40;;;;;;;22.96;59.45;96567.72;4993982;28;20420;-61
2021/08/10 10:24:40;;;;;;;5.00;2.50;;;;;;;22.88;60.94;96567.63;4991204;28;20452;-58
2021/08/10 10:27:10;;;;;;;4.50;1.90;;;;;;;23.00;63.24;96565.22;4992752;28;20428;-56
2021/08/10 10:29:37;;;;;;;3.97;2.37;;;;;;;23.35;63.06;96565.31;4983695;28;20465;-58
2021/08/10 10:32:03;;;;;;;2.90;2.20;;;;;;;23.26;63.36;96559.03;4980829;28;20867;-58
2021/08/10 10:34:30;;;;;;;3.13;1.97;;;;;;;23.21;62.66;96567.19;4992670;28;20576;-57
2021/08/10 10:36:57;;;;;;;2.37;2.17;;;;;;;23.17;61.22;96571.56;4992372;28;20200;-58
2021/08/10 10:39:26;;;;;;;3.83;2.20;;;;;;;23.51;62.37;96564.97;4992839;28;20427;-60
2021/08/10 10:41:56;;;;;;;5.17;2.27;;;;;;;23.56;63.83;96560.28;4993103;28;20427;-60
2021/08/10 10:44:41;;;;;;;3.40;2.70;;;;;;;23.60;60.00;96558.59;4992540;28;21038;-58
2021/08/10 10:47:25;;;;;;;2.40;2.20;;;;;;;23.43;60.84;96558.44;4992291;28;20953;-61
2021/08/10 10:49:56;;;;;;;6.57;2.27;;;;;;;23.73;61.15;96552.41;4973911;28;20465;-57
2021/08/10 10:52:30;;;;;;;3.50;2.37;;;;;;;23.92;62.21;96549.50;4982674;28;20833;-58
2021/08/10 10:54:57;;;;;;;5.83;2.33;;;;;;;24.31;63.12;96550.41;4989373;28;20452;-56
2021/08/10 10:57:29;;;;;;;2.50;2.30;;;;;;;24.51;61.89;96554.50;4973388;28;20409;-56
2021/08/10 11:00:04;;;;;;;3.07;2.50;;;;;;;24.16;61.82;96550.03;4972090;28;20409;-57
2021/08/10 11:02:33;;;;;;;4.77;2.47;;;;;;;24.32;63.44;96554.72;4972686;28;20508;-60
2021/08/10 11:05:08;;;;;;;3.20;2.40;;;;;;;24.42;62.92;96551.75;4978521;28;20528;-59
2021/08/10 11:07:37;;;;;;;2.40;2.10;;;;;;;24.64;59.81;96552.81;4989313;28;20436;-60
2021/08/10 11:10:05;;;;;;;3.40;2.80;;;;;;;24.62;59.78;96553.13;4990882;28;20452;-60
2021/08/10 11:12:43;;;;;;;2.40;2.20;;;;;;;24.42;60.56;96543.69;4984404;28;20425;-55
2021/08/10 11:15:19;;;;;;;4.10;2.23;;;;;;;24.68;61.90;96538.41;4987041;28;20436;-61
2021/08/10 11:18:10;;;;;;;2.40;2.20;;;;;;;24.66;59.24;96547.91;4995755;28;20471;-57
2021/08/10 11:20:47;;;;;;;4.43;2.47;;;;;;;24.85;60.14;96546.59;4996287;28;20412;-61
2021/08/10 11:23:26;;;;;;;3.10;2.20;;;;;;;24.92;61.33;96540.75;4994250;28;20420;-62
2021/08/10 11:26:12;;;;;;;2.70;2.27;;;;;;;25.21;61.92;96551.75;4989100;28;20507;-58
2021/08/10 11:28:49;;;;;;;4.03;2.40;;;;;;;25.06;61.23;96539.53;4978301;28;20607;-61
2021/08/10 11:31:34;;;;;;;2.60;2.33;;;;;;;25.09;61.03;96544.25;4993707;28;20483;-61
2021/08/10 11:33:59;;;;;;;2.30;2.10;;;;;;;25.04;60.64;96549.78;5000162;28;20420;-61
2021/08/10 11:36:26;;;;;;;2.40;2.30;;;;;;;25.30;59.90;96545.28;5014329;28;20419;-61
2021/08/10 11:38:52;;;;;;;2.17;1.90;;;;;;;25.44;59.90;96542.47;5014917;28;20172;-61